首页
METAR-TAF:

METAR-TAF

机场 :

伊丽莎白市, 北卡罗来纳州, 美国

纬度: 36-15-47N, 经度: 076-10-58W, 海拔: 3米

当前天气观测

该预报发布于51分钟前的02:54 UTC
风速9节,风向北转西北
温度 17°C
湿度 88%
气压 1013 hPa
能見度: 16.1公里
散云层高于4700英尺
阴天层高于6000英尺

METAR: KECG 170254Z AUTO 34009KT 10SM SCT047 OVC060 17/15 A2990 RMK AO2 RAE00 SLP124 P0000 60026 T01720150 51020

时间: 23:45 (03:45 UTC)

预报

该预报发布于1小时和19分钟前的02:26 UTC
预报有效从17日的 02点(UTC)到 17日的 24点(UTC)
风速9节,风向北转西北,有时为15节阵风
能見度: 10公里
散云层高于1800英尺
阴天层高于4000英尺
附近有阵雨
短暂存在
从 17日的 02点(UTC)到 17日的 04点(UTC)
多云层高于1800英尺
从 17日的 0400点(UTC)
风速9节,风向北转西北
能見度: 10公里
多云层高于5000英尺
从 17日的 0900点(UTC)
风速8节,风向西北
能見度: 10公里
天空无云
从 17日的 1600点(UTC)
风速12节,风向西北,有时为21节阵风
能見度: 10公里
天空无云

TAF: KECG 170226Z 1702/1724 34009G15KT P6SM VCSH SCT018 OVC040 WS010/35035KT TEMPO 1702/1704 BKN018 FM170400 34009KT P6SM BKN050 WS010/35035KT FM170900 32008KT P6SM SKC FM171600 31012G21KT P6SM SKC

超过4000个机场的气象观测和天气预报(METAR&TAF报告)。

可查询的气象台以黄色和红色小点在地图上表示。

将鼠标移到小点上方,可查看气象台名称。

然后点击查看天气观测和预报。

如需切换地图:点击带黑十字的绿色按钮放大地图;点击带横线的绿色按钮缩小地图;或者点击绿色箭头查看邻近地区的地图。


METAR-TAF: